createdAt,value
2022-09-16T00:02:14.863Z,0
2022-09-16T00:07:16.661Z,0
2022-09-16T00:12:18.414Z,0.88715
2022-09-16T00:17:20.151Z,0.88715
2022-09-16T00:22:21.912Z,0
2022-09-16T00:27:24.032Z,0
2022-09-16T00:32:25.801Z,0
2022-09-16T00:37:27.628Z,0
2022-09-16T00:42:29.637Z,0.88715
2022-09-16T00:47:31.302Z,0.88715
2022-09-16T00:52:33.105Z,0.88715
2022-09-16T00:57:35.184Z,0
2022-09-16T01:02:36.858Z,0
2022-09-16T01:07:38.543Z,0
2022-09-16T01:12:40.346Z,0
2022-09-16T01:17:42.173Z,0.88715
2022-09-16T01:22:43.797Z,0
2022-09-16T01:27:45.447Z,0.88715
2022-09-16T01:32:47.114Z,0
2022-09-16T01:37:48.637Z,0
2022-09-16T01:42:50.172Z,0.88715
2022-09-16T01:47:51.726Z,0.88715
2022-09-16T01:52:53.224Z,0
2022-09-16T01:57:54.905Z,0.88715
2022-09-16T02:02:56.488Z,0.88715
2022-09-16T02:07:58.060Z,0.88715
2022-09-16T02:12:59.597Z,0
2022-09-16T02:18:01.009Z,0.88715
2022-09-16T02:23:02.485Z,0
2022-09-16T02:28:04.160Z,0
2022-09-16T02:33:05.613Z,0
2022-09-16T02:38:07.087Z,0
2022-09-16T02:43:08.567Z,0
2022-09-16T02:48:10.093Z,0
2022-09-16T02:53:11.619Z,0.88715
2022-09-16T02:58:13.212Z,0
2022-09-16T03:03:14.768Z,0
2022-09-16T03:08:16.321Z,0
2022-09-16T03:13:17.830Z,0
2022-09-16T03:18:19.268Z,0
2022-09-16T03:23:20.701Z,0
2022-09-16T03:28:22.348Z,0.88715
2022-09-16T03:33:23.795Z,0.88715
2022-09-16T03:38:25.253Z,0.88715
2022-09-16T03:43:26.841Z,1.16185
2022-09-16T03:48:28.287Z,0.8296
2022-09-16T03:53:29.805Z,1.71845
2022-09-16T03:58:31.675Z,2.9036
2022-09-16T04:03:33.598Z,9.60855
2022-09-16T04:08:35.270Z,14.51455
2022-09-16T04:13:36.978Z,21.3326
2022-09-16T04:18:38.594Z,32.7693
2022-09-16T04:23:40.086Z,46.9911
2022-09-16T04:28:41.806Z,63.9606
2022-09-16T04:33:43.257Z,85.57555
2022-09-16T04:38:44.850Z,102.912
2022-09-16T04:43:46.431Z,174.09815
2022-09-16T04:48:48.115Z,158.44305
2022-09-16T04:53:49.613Z,168.23605
2022-09-16T04:58:51.816Z,185.00015
2022-09-16T05:03:53.285Z,205.9876
2022-09-16T05:08:54.794Z,218.78695
2022-09-16T05:13:56.398Z,247.6126
2022-09-16T05:18:57.927Z,273.1923
2022-09-16T05:23:59.538Z,312.6039
2022-09-16T05:29:01.279Z,302.7349
2022-09-16T05:34:02.744Z,324.6446
2022-09-16T05:39:22.129Z,367.19185
2022-09-16T05:44:25.110Z,477.3697
2022-09-16T05:49:26.607Z,476.64905
2022-09-16T05:54:28.225Z,586.9599
2022-09-16T05:59:29.878Z,624.69245
2022-09-16T06:04:31.317Z,577.863
2022-09-16T06:09:32.779Z,559.3647
2022-09-16T06:14:34.390Z,698.1513
2022-09-16T06:19:35.849Z,719.4335
2022-09-16T06:24:37.312Z,734.1668
2022-09-16T06:29:38.997Z,723.47055
2022-09-16T06:34:40.457Z,631.525
2022-09-16T06:39:41.906Z,748.5122
2022-09-16T06:44:43.495Z,548.28845
2022-09-16T06:49:45.017Z,693.3065
2022-09-16T06:54:46.882Z,827.66445
2022-09-16T06:59:48.923Z,717.83095
2022-09-16T07:04:50.671Z,858.9431
2022-09-16T07:09:52.519Z,864.55075
2022-09-16T07:14:54.129Z,857.8934
2022-09-16T07:19:55.845Z,902.9108
2022-09-16T07:24:57.572Z,913.4416
2022-09-16T07:30:00.327Z,923.9914
2022-09-16T07:35:01.963Z,965.91115
2022-09-16T07:40:03.591Z,976.82985
2022-09-16T07:45:05.281Z,982.51165
2022-09-16T07:50:06.814Z,981.70155
2022-09-16T07:55:08.371Z,996.3644
2022-09-16T08:00:11.510Z,1017.26055
2022-09-16T08:05:13.214Z,1041.03375
2022-09-16T08:10:14.965Z,1060.5836
2022-09-16T08:15:16.818Z,1096.04945
2022-09-16T08:20:18.605Z,1110.9519
2022-09-16T08:25:20.472Z,1078.1958
2022-09-16T08:30:22.866Z,1157.21085
2022-09-16T08:35:24.683Z,1186.86375
2022-09-16T08:40:26.472Z,1203.40725
2022-09-16T08:45:28.139Z,1228.52675
2022-09-16T08:50:29.769Z,1249.4229
2022-09-16T08:55:31.481Z,1282.43575
2022-09-16T09:00:33.512Z,1310.11855
2022-09-16T09:05:35.294Z,1327.01195
2022-09-16T09:10:37.067Z,1361.0022
2022-09-16T09:15:38.725Z,1383.50325
2022-09-16T09:20:40.382Z,1390.0503
2022-09-16T09:25:42.121Z,1388.0042
2022-09-16T09:30:44.909Z,1451.7595
2022-09-16T09:35:46.790Z,1465.1312
2022-09-16T09:40:48.561Z,1505.22545
2022-09-16T09:45:50.445Z,1530.2518
2022-09-16T09:50:52.356Z,1551.23925
2022-09-16T09:55:54.156Z,1580.3045
2022-09-16T10:00:56.583Z,1656.6747
2022-09-16T10:05:58.436Z,1670.45145
2022-09-16T10:11:00.341Z,1692.5456
2022-09-16T10:16:02.322Z,1687.99135
2022-09-16T10:21:03.879Z,1758.423
2022-09-16T10:26:05.479Z,1768.47275
2022-09-16T10:31:08.145Z,1837.37365
2022-09-16T10:36:09.670Z,1873.59445
2022-09-16T10:41:11.161Z,1889.9345
2022-09-16T10:46:12.728Z,1899.7655
2022-09-16T10:51:14.211Z,1868.41455
2022-09-16T10:56:15.771Z,1023.1162
2022-09-16T11:01:19.232Z,1124.46685
2022-09-16T11:06:22.227Z,1067.25675
2022-09-16T11:11:23.689Z,829.1234
2022-09-16T11:16:25.303Z,1634.5254
2022-09-16T11:21:26.863Z,942.1176
2022-09-16T11:26:28.437Z,2120.0605
2022-09-16T11:31:30.165Z,2176.6014
2022-09-16T11:36:31.834Z,2213.33755
2022-09-16T11:41:33.311Z,2151.29745
2022-09-16T11:46:34.947Z,2182.85185
2022-09-16T11:51:36.455Z,1708.8426
2022-09-16T11:56:38.008Z,2094.0702
2022-09-16T12:01:40.549Z,2065.13425
2022-09-16T12:06:42.135Z,1975.30105
2022-09-16T12:11:43.674Z,1791.54245
2022-09-16T12:16:45.218Z,1750.04675
2022-09-16T12:21:46.824Z,1660.1204
2022-09-16T12:26:48.388Z,1723.82055
2022-09-16T12:31:51.305Z,1838.4558
2022-09-16T12:36:53.133Z,1810.792
2022-09-16T12:41:54.583Z,1637.2222
2022-09-16T12:46:56.316Z,988.7209
2022-09-16T12:51:58.079Z,1934.49775
2022-09-16T12:56:59.692Z,1870.35455
2022-09-16T13:02:02.466Z,1928.8711
2022-09-16T13:07:04.160Z,1791.18145
2022-09-16T13:12:39.102Z,1704.7425
2022-09-16T13:17:41.832Z,1612.2357
2022-09-16T13:22:43.622Z,1682.9811
2022-09-16T13:27:45.401Z,1655.26215
2022-09-16T13:32:47.412Z,1458.15085
2022-09-16T13:37:49.207Z,1448.3407
2022-09-16T13:42:51.049Z,1306.22425
2022-09-16T13:47:52.880Z,755.17745
2022-09-16T13:52:54.536Z,598.48945
2022-09-16T13:57:56.268Z,579.16205
2022-09-16T14:02:58.454Z,533.27755
2022-09-16T14:08:00.291Z,523.61385
2022-09-16T14:13:02.029Z,559.10055
2022-09-16T14:18:03.776Z,521.4746
2022-09-16T14:23:05.227Z,524.09305
2022-09-16T14:28:06.663Z,700.4787
2022-09-16T14:33:08.427Z,704.8142
2022-09-16T14:38:22.794Z,718.48065
2022-09-16T14:43:36.563Z,575.0601
2022-09-16T14:48:38.460Z,667.7796
2022-09-16T14:53:41.658Z,559.3378
2022-09-16T14:58:50.414Z,501.61235
2022-09-16T15:03:52.382Z,391.6208
2022-09-16T15:08:54.127Z,308.58955
2022-09-16T15:13:55.951Z,261.8514
2022-09-16T15:18:57.911Z,243.97505
2022-09-16T15:23:59.657Z,153.44575
2022-09-16T15:29:01.481Z,117.5073
2022-09-16T15:34:03.454Z,86.81155
2022-09-16T15:39:04.884Z,83.56375
2022-09-16T15:44:06.665Z,77.4579
2022-09-16T15:49:08.392Z,51.95235
2022-09-16T15:54:09.854Z,35.79675
2022-09-16T15:59:11.322Z,22.33375
2022-09-16T16:04:13.028Z,9.00005
2022-09-16T16:09:14.445Z,3.7332
2022-09-16T16:14:16.005Z,2.1925
2022-09-16T16:19:17.723Z,0.5333
2022-09-16T16:24:19.522Z,0
2022-09-16T16:29:21.151Z,0.88715
2022-09-16T16:34:23.141Z,0.88715
2022-09-16T16:39:24.782Z,0.88715
2022-09-16T16:44:26.516Z,0.88715
2022-09-16T16:49:28.255Z,0.88715
2022-09-16T16:54:29.902Z,0.88715
2022-09-16T16:59:31.654Z,0.88715
2022-09-16T17:04:33.618Z,0.88715
2022-09-16T17:09:35.365Z,0.88715
2022-09-16T17:14:37.085Z,0.88715
2022-09-16T17:19:38.859Z,0.88715
2022-09-16T17:24:40.650Z,0.88715
2022-09-16T17:29:42.405Z,0.88715
2022-09-16T17:34:44.341Z,0.88715
2022-09-16T17:39:46.171Z,0.88715
2022-09-16T17:44:48.035Z,0
2022-09-16T17:49:49.951Z,0.88715
2022-09-16T17:54:51.676Z,0
2022-09-16T17:59:53.503Z,0.88715
2022-09-16T18:04:55.291Z,0
2022-09-16T18:09:57.185Z,0.88715
2022-09-16T18:14:58.970Z,0.88715
2022-09-16T18:20:04.977Z,0.88715
2022-09-16T18:25:08.427Z,0
2022-09-16T18:30:10.019Z,0.88715
2022-09-16T18:35:11.870Z,0.88715
2022-09-16T18:40:13.400Z,0.88715
2022-09-16T18:45:14.973Z,0.88715
2022-09-16T18:50:16.436Z,0.88715
2022-09-16T18:55:17.886Z,0
2022-09-16T19:00:19.550Z,0.88715
2022-09-16T19:05:21.292Z,0.88715
2022-09-16T19:10:22.833Z,0.88715
2022-09-16T19:15:24.283Z,0.88715
2022-09-16T19:20:25.743Z,0.88715
2022-09-16T19:25:27.190Z,0.88715
2022-09-16T19:30:28.820Z,0.88715
2022-09-16T19:35:30.679Z,0
2022-09-16T19:40:32.785Z,0
2022-09-16T19:45:34.534Z,0.88715
2022-09-16T19:50:36.492Z,0.88715
2022-09-16T19:55:38.150Z,0
2022-09-16T20:00:55.307Z,0.88715
2022-09-16T20:05:58.717Z,0.88715
2022-09-16T20:11:00.476Z,0.88715
2022-09-16T20:16:02.384Z,0.88715
2022-09-16T20:21:04.197Z,0.88715
2022-09-16T20:26:06.058Z,0.88715
2022-09-16T20:31:07.879Z,0
2022-09-16T20:36:09.761Z,0.88715
2022-09-16T20:41:11.212Z,0.88715
2022-09-16T20:46:12.949Z,0.88715
2022-09-16T20:51:14.900Z,0.88715
2022-09-16T20:56:16.683Z,0.88715
2022-09-16T21:01:18.501Z,0
2022-09-16T21:06:20.508Z,0
2022-09-16T21:11:22.299Z,0.88715
2022-09-16T21:16:24.287Z,0.88715
2022-09-16T21:21:26.174Z,0.88715
2022-09-16T21:26:27.916Z,0.88715
2022-09-16T21:31:29.797Z,0.88715
2022-09-16T21:36:31.900Z,0.88715
2022-09-16T21:41:33.645Z,0.88715
2022-09-16T21:46:35.402Z,0.88715
2022-09-16T21:51:37.245Z,0.88715
2022-09-16T21:56:39.020Z,0
2022-09-16T22:01:40.822Z,0
2022-09-16T22:06:42.803Z,0.88715
2022-09-16T22:11:44.409Z,0
2022-09-16T22:16:46.162Z,0.88715
2022-09-16T22:21:47.960Z,0
2022-09-16T22:26:49.713Z,0
2022-09-16T22:31:51.606Z,0.88715
2022-09-16T22:36:53.614Z,0.88715
2022-09-16T22:41:55.381Z,0.88715
2022-09-16T22:46:57.253Z,0.88715
2022-09-16T22:51:59.086Z,0.88715
2022-09-16T22:57:00.763Z,0.88715
2022-09-16T23:02:02.628Z,0
2022-09-16T23:07:04.721Z,0.88715
2022-09-16T23:12:06.467Z,0
2022-09-16T23:17:08.347Z,0
2022-09-16T23:22:09.902Z,0.88715
2022-09-16T23:27:11.452Z,0.88715
2022-09-16T23:32:12.968Z,0.88715
2022-09-16T23:42:25.164Z,0
2022-09-16T23:47:26.808Z,0
2022-09-16T23:52:28.410Z,0.88715
2022-09-16T23:57:30.151Z,0.88715
